createdAt,value
2023-12-11T00:02:02.787Z,78.30
2023-12-11T00:04:35.125Z,78.50
2023-12-11T00:07:05.640Z,76.90
2023-12-11T00:09:36.481Z,77.00
2023-12-11T00:12:06.981Z,77.40
2023-12-11T00:14:40.968Z,77.80
2023-12-11T00:17:12.149Z,76.30
2023-12-11T00:19:42.430Z,74.30
2023-12-11T00:22:12.899Z,73.20
2023-12-11T00:24:43.646Z,73.40
2023-12-11T00:27:16.729Z,73.50
2023-12-11T00:29:47.069Z,72.80
2023-12-11T00:32:17.388Z,73.30
2023-12-11T00:34:47.726Z,73.00
2023-12-11T00:37:18.241Z,73.00
2023-12-11T00:39:48.585Z,72.20
2023-12-11T00:42:19.424Z,72.70
2023-12-11T00:44:50.191Z,71.20
2023-12-11T00:47:21.880Z,71.10
2023-12-11T00:49:52.405Z,71.70
2023-12-11T00:52:22.837Z,71.40
2023-12-11T00:54:53.223Z,72.30
2023-12-11T00:57:25.106Z,72.00
2023-12-11T00:59:55.621Z,73.20
2023-12-11T01:02:26.058Z,72.10
2023-12-11T01:04:56.822Z,71.20
2023-12-11T01:07:27.387Z,72.00
2023-12-11T01:09:58.438Z,72.40
2023-12-11T01:12:28.904Z,73.00
2023-12-11T01:14:59.428Z,71.60
2023-12-11T01:17:38.665Z,73.20
2023-12-11T01:20:12.256Z,71.60
2023-12-11T01:22:42.663Z,71.30
2023-12-11T01:25:13.571Z,72.00
2023-12-11T01:27:45.680Z,71.60
2023-12-11T01:30:16.152Z,72.50
2023-12-11T01:32:46.609Z,71.60
2023-12-11T01:35:16.958Z,71.40
2023-12-11T01:37:47.334Z,71.60
2023-12-11T01:40:17.692Z,70.50
2023-12-11T01:42:48.139Z,71.20
2023-12-11T01:45:18.485Z,71.50
2023-12-11T01:47:50.499Z,70.70
2023-12-11T01:50:20.932Z,69.50
2023-12-11T01:52:52.140Z,69.40
2023-12-11T01:55:22.443Z,69.50
2023-12-11T01:57:53.050Z,68.90
2023-12-11T02:00:24.981Z,69.30
2023-12-11T02:02:55.432Z,65.80
2023-12-11T02:05:25.737Z,66.60
2023-12-11T02:07:56.252Z,63.60
2023-12-11T02:10:27.769Z,64.30
2023-12-11T02:12:58.473Z,63.90
2023-12-11T02:15:46.444Z,62.00
2023-12-11T02:18:20.145Z,60.00
2023-12-11T02:20:51.074Z,62.70
2023-12-11T02:23:42.537Z,63.00
2023-12-11T02:26:18.760Z,61.10
2023-12-11T02:28:52.100Z,61.20
2023-12-11T02:31:22.417Z,61.20
2023-12-11T02:33:52.972Z,61.10
2023-12-11T02:36:23.309Z,61.10
2023-12-11T02:38:53.836Z,61.80
2023-12-11T02:41:24.227Z,61.20
2023-12-11T02:43:54.723Z,61.20
2023-12-11T02:46:25.059Z,60.90
2023-12-11T02:48:55.573Z,60.30
2023-12-11T02:51:26.111Z,60.70
2023-12-11T02:53:57.160Z,61.40
2023-12-11T02:56:27.457Z,61.60
2023-12-11T02:58:57.863Z,62.60
2023-12-11T03:01:28.238Z,62.30
2023-12-11T03:03:58.709Z,60.80
2023-12-11T03:06:29.968Z,62.30
2023-12-11T03:09:00.943Z,60.20
2023-12-11T03:11:31.493Z,60.50
2023-12-11T03:14:01.819Z,59.50
2023-12-11T03:16:32.163Z,58.80
2023-12-11T03:19:02.634Z,60.00
2023-12-11T03:21:33.077Z,59.70
2023-12-11T03:24:13.832Z,61.50
2023-12-11T03:26:44.149Z,59.10
2023-12-11T03:29:15.122Z,59.50
2023-12-11T03:31:45.660Z,60.60
2023-12-11T03:34:16.342Z,59.00
2023-12-11T03:36:46.658Z,59.60
2023-12-11T03:39:17.375Z,60.40
2023-12-11T03:41:48.692Z,60.90
2023-12-11T03:44:18.970Z,61.60
2023-12-11T03:46:50.021Z,60.00
2023-12-11T03:49:21.379Z,59.50
2023-12-11T03:51:55.418Z,61.10
2023-12-11T03:54:25.816Z,59.70
2023-12-11T03:56:56.189Z,59.90
2023-12-11T03:59:26.911Z,59.80
2023-12-11T04:01:57.748Z,59.90
2023-12-11T04:04:29.442Z,58.90
2023-12-11T04:07:05.723Z,59.10
2023-12-11T04:09:36.278Z,59.00
2023-12-11T04:12:06.802Z,59.80
2023-12-11T04:14:37.066Z,58.10
2023-12-11T04:17:07.385Z,58.50
2023-12-11T04:19:37.910Z,58.10
2023-12-11T04:22:08.248Z,58.60
2023-12-11T04:24:38.672Z,56.80
2023-12-11T04:27:08.944Z,57.30
2023-12-11T04:29:39.239Z,58.30
2023-12-11T04:32:10.248Z,56.30
2023-12-11T04:34:40.644Z,55.20
2023-12-11T04:37:11.051Z,54.10
2023-12-11T04:39:41.480Z,54.50
2023-12-11T04:42:11.848Z,56.10
2023-12-11T04:44:42.592Z,57.50
2023-12-11T04:47:12.989Z,57.70
2023-12-11T04:49:45.811Z,56.20
2023-12-11T04:52:16.651Z,55.70
2023-12-11T04:54:47.238Z,56.80
2023-12-11T04:57:18.023Z,57.40
2023-12-11T04:59:50.916Z,57.70
2023-12-11T05:02:22.763Z,57.20
2023-12-11T05:04:53.136Z,57.70
2023-12-11T05:07:23.667Z,58.10
2023-12-11T05:09:54.581Z,59.80
2023-12-11T05:12:24.925Z,60.10
2023-12-11T05:14:55.241Z,60.10
2023-12-11T05:17:26.160Z,60.20
2023-12-11T05:19:57.609Z,60.50
2023-12-11T05:22:28.047Z,60.90
2023-12-11T05:24:58.449Z,59.40
2023-12-11T05:27:29.258Z,58.60
2023-12-11T05:29:59.731Z,58.30
2023-12-11T05:32:30.282Z,59.40
2023-12-11T05:35:00.642Z,60.00
2023-12-11T05:37:31.214Z,61.20
2023-12-11T05:40:21.014Z,60.80
2023-12-11T05:42:52.778Z,60.50
2023-12-11T05:45:23.286Z,61.50
2023-12-11T05:47:54.068Z,62.00
2023-12-11T05:50:24.390Z,62.60
2023-12-11T05:52:54.770Z,62.50
2023-12-11T05:55:25.140Z,63.50
2023-12-11T05:57:55.544Z,63.60
2023-12-11T06:00:26.065Z,64.20
2023-12-11T06:02:57.168Z,64.70
2023-12-11T06:05:27.654Z,64.70
2023-12-11T06:07:59.268Z,65.00
2023-12-11T06:10:29.552Z,64.30
2023-12-11T06:12:59.975Z,64.30
2023-12-11T06:15:30.345Z,62.90
2023-12-11T06:18:01.054Z,63.70
2023-12-11T06:20:31.665Z,63.50
2023-12-11T06:23:02.012Z,64.00
2023-12-11T06:25:32.313Z,64.80
2023-12-11T06:28:02.668Z,64.40
2023-12-11T06:30:33.405Z,64.20
2023-12-11T06:33:04.478Z,64.40
2023-12-11T06:35:34.898Z,64.20
2023-12-11T06:38:05.330Z,64.50
2023-12-11T06:40:35.600Z,64.60
2023-12-11T06:43:06.044Z,64.20
2023-12-11T06:45:38.692Z,64.40
2023-12-11T06:48:10.955Z,64.10
2023-12-11T06:50:41.883Z,64.80
2023-12-11T06:53:13.660Z,65.00
2023-12-11T06:55:46.062Z,64.20
2023-12-11T06:58:19.439Z,64.10
2023-12-11T07:00:51.734Z,65.10
2023-12-11T07:03:22.682Z,63.40
2023-12-11T07:05:54.265Z,64.30
2023-12-11T07:08:26.564Z,63.60
2023-12-11T07:10:56.993Z,64.20
2023-12-11T07:13:27.352Z,64.40
2023-12-11T07:15:57.757Z,63.70
2023-12-11T07:18:28.497Z,63.50
2023-12-11T07:20:59.341Z,63.90
2023-12-11T07:23:30.829Z,63.60
2023-12-11T07:26:01.119Z,64.00
2023-12-11T07:28:34.288Z,64.20
2023-12-11T07:31:06.916Z,64.20
2023-12-11T07:33:37.935Z,64.30
2023-12-11T07:36:08.882Z,64.60
2023-12-11T07:38:39.176Z,65.00
2023-12-11T07:41:10.291Z,66.10
2023-12-11T07:43:41.612Z,66.50
2023-12-11T07:46:19.082Z,66.70
2023-12-11T07:48:51.816Z,66.50
2023-12-11T07:51:29.831Z,66.30
2023-12-11T07:54:02.118Z,66.80
2023-12-11T07:56:34.585Z,67.10
2023-12-11T07:59:05.365Z,66.50
2023-12-11T08:01:36.398Z,67.00
2023-12-11T08:04:06.967Z,67.10
2023-12-11T08:06:42.272Z,67.30
2023-12-11T08:09:14.006Z,67.60
2023-12-11T08:11:44.667Z,68.20
2023-12-11T08:14:14.976Z,68.50
2023-12-11T08:16:45.376Z,68.60
2023-12-11T08:19:15.737Z,69.50
2023-12-11T08:21:46.172Z,69.70
2023-12-11T08:24:16.508Z,69.60
2023-12-11T08:26:47.285Z,70.00
2023-12-11T08:29:17.568Z,70.80
2023-12-11T08:31:48.522Z,71.80
2023-12-11T08:34:19.182Z,70.80
2023-12-11T08:36:49.878Z,71.20
2023-12-11T08:39:26.420Z,72.00
2023-12-11T08:41:57.905Z,72.30
2023-12-11T08:44:28.358Z,72.20
2023-12-11T08:46:58.741Z,72.10
2023-12-11T08:49:29.104Z,72.50
2023-12-11T08:52:00.142Z,72.80
2023-12-11T08:54:30.490Z,72.80
2023-12-11T08:57:00.886Z,73.00
2023-12-11T08:59:31.913Z,73.20
2023-12-11T09:02:02.689Z,73.50
2023-12-11T09:04:33.167Z,73.80
2023-12-11T09:07:03.748Z,74.10
2023-12-11T09:09:36.782Z,74.00
2023-12-11T09:12:13.129Z,74.20
2023-12-11T09:14:49.750Z,74.90
2023-12-11T09:17:20.360Z,75.00
2023-12-11T09:19:55.066Z,76.00
2023-12-11T09:22:28.094Z,75.40
2023-12-11T09:24:58.560Z,75.20
2023-12-11T09:27:29.354Z,76.30
2023-12-11T09:30:00.267Z,75.90
2023-12-11T09:32:31.895Z,76.60
2023-12-11T09:35:03.596Z,77.10
2023-12-11T09:37:34.357Z,77.00
2023-12-11T09:40:04.725Z,77.40
2023-12-11T09:42:36.679Z,77.30
2023-12-11T09:45:07.433Z,77.90
2023-12-11T09:48:00.391Z,77.90
2023-12-11T09:50:41.980Z,78.20
2023-12-11T09:53:13.159Z,78.40
2023-12-11T09:55:43.466Z,78.20
2023-12-11T09:58:15.216Z,79.30
2023-12-11T10:00:46.512Z,79.00
2023-12-11T10:03:17.269Z,79.60
2023-12-11T10:05:47.962Z,79.50
2023-12-11T10:08:21.283Z,80.40
2023-12-11T10:10:51.567Z,80.80
2023-12-11T10:13:28.431Z,80.90
2023-12-11T10:15:59.023Z,81.20
2023-12-11T10:18:30.765Z,81.40
2023-12-11T10:21:02.083Z,81.20
2023-12-11T10:23:33.611Z,82.30
2023-12-11T10:26:10.557Z,81.60
2023-12-11T10:28:41.203Z,81.80
2023-12-11T10:31:12.816Z,81.50
2023-12-11T10:33:53.923Z,82.10
2023-12-11T10:36:25.078Z,82.20
2023-12-11T10:39:10.568Z,83.20
2023-12-11T10:41:40.871Z,82.70
2023-12-11T10:44:17.273Z,83.40
2023-12-11T10:46:55.964Z,83.10
2023-12-11T10:49:28.449Z,83.50
2023-12-11T10:51:59.416Z,83.10
2023-12-11T10:54:30.359Z,83.10
2023-12-11T10:57:04.592Z,84.40
2023-12-11T10:59:36.487Z,84.20
2023-12-11T11:02:08.727Z,84.20
2023-12-11T11:04:44.843Z,84.40
2023-12-11T11:07:18.149Z,84.30
2023-12-11T11:10:04.402Z,84.50
2023-12-11T11:12:55.060Z,84.20
2023-12-11T11:15:27.809Z,85.00
2023-12-11T11:18:13.076Z,85.10
2023-12-11T11:20:43.914Z,85.00
2023-12-11T11:23:21.179Z,85.50
2023-12-11T11:25:55.731Z,85.90
2023-12-11T11:28:45.292Z,85.80
2023-12-11T11:31:23.929Z,85.50
2023-12-11T11:34:01.474Z,86.00
2023-12-11T11:36:51.807Z,85.80
2023-12-11T11:39:22.153Z,85.80
2023-12-11T11:41:52.567Z,86.90
2023-12-11T11:44:25.420Z,85.80
2023-12-11T11:47:00.529Z,85.70
2023-12-11T11:49:37.119Z,85.60
2023-12-11T11:52:13.896Z,86.70
2023-12-11T11:54:45.759Z,86.20
2023-12-11T11:57:16.792Z,86.20
2023-12-11T11:59:50.077Z,86.00
2023-12-11T12:02:27.173Z,87.70
2023-12-11T12:04:58.131Z,86.70
2023-12-11T12:07:28.772Z,86.20
2023-12-11T12:10:02.246Z,86.60
2023-12-11T12:12:32.862Z,87.00
2023-12-11T12:15:13.396Z,87.00
2023-12-11T12:17:45.493Z,87.10
2023-12-11T12:20:20.000Z,87.00
2023-12-11T12:23:07.444Z,87.40
2023-12-11T12:25:38.722Z,87.10
2023-12-11T12:28:15.953Z,87.60
2023-12-11T12:30:46.512Z,88.30
2023-12-11T12:33:17.172Z,88.00
2023-12-11T12:35:48.991Z,87.80
2023-12-11T12:38:25.210Z,88.70
2023-12-11T12:40:57.672Z,90.00
2023-12-11T12:43:29.076Z,89.50
2023-12-11T12:46:08.710Z,89.90
2023-12-11T12:48:40.001Z,89.90
2023-12-11T12:51:14.365Z,90.00
2023-12-11T12:53:57.517Z,89.80
2023-12-11T12:56:28.631Z,89.50
2023-12-11T12:59:00.510Z,89.00
2023-12-11T13:01:31.092Z,88.50
2023-12-11T13:04:04.412Z,88.30
2023-12-11T13:06:34.991Z,87.70
2023-12-11T13:09:06.474Z,87.80
2023-12-11T13:11:43.555Z,87.80
2023-12-11T13:14:17.748Z,88.30
2023-12-11T13:16:50.173Z,88.20
2023-12-11T13:19:20.714Z,87.60
2023-12-11T13:21:51.118Z,87.20
2023-12-11T13:24:21.563Z,86.90
2023-12-11T13:26:51.994Z,87.30
2023-12-11T13:29:22.984Z,87.60
2023-12-11T13:31:55.220Z,87.50
2023-12-11T13:34:25.706Z,87.80
2023-12-11T13:36:56.376Z,87.80
2023-12-11T13:39:26.886Z,87.10
2023-12-11T13:41:57.686Z,87.40
2023-12-11T13:44:29.285Z,87.20
2023-12-11T13:46:59.525Z,87.70
2023-12-11T13:49:30.435Z,87.70
2023-12-11T13:52:02.578Z,87.30
2023-12-11T13:54:32.923Z,87.10
2023-12-11T13:57:03.622Z,87.70
2023-12-11T13:59:34.407Z,88.00
2023-12-11T14:02:05.368Z,88.20
2023-12-11T14:04:36.333Z,87.70
2023-12-11T14:07:07.066Z,88.00
2023-12-11T14:09:37.647Z,89.10
2023-12-11T14:12:08.289Z,88.30
2023-12-11T14:14:39.903Z,88.60
2023-12-11T14:17:10.790Z,88.50
2023-12-11T14:19:42.606Z,88.40
2023-12-11T14:22:13.477Z,88.60
2023-12-11T14:24:45.345Z,88.20
2023-12-11T14:27:16.419Z,88.20
2023-12-11T14:29:47.730Z,87.80
2023-12-11T14:32:18.120Z,88.20
2023-12-11T14:34:49.068Z,88.10
2023-12-11T14:37:19.867Z,88.10
2023-12-11T14:39:50.481Z,88.20
2023-12-11T14:42:33.992Z,87.90
2023-12-11T14:45:05.924Z,87.90
2023-12-11T14:47:37.060Z,88.30
2023-12-11T14:50:08.989Z,87.80
2023-12-11T14:52:39.521Z,87.90
2023-12-11T14:55:10.793Z,88.10
2023-12-11T14:57:41.497Z,88.20
2023-12-11T15:00:13.856Z,88.40
2023-12-11T15:02:44.256Z,88.60
2023-12-11T15:05:15.301Z,88.00
2023-12-11T15:07:45.952Z,88.60
2023-12-11T15:10:17.505Z,87.40
2023-12-11T15:12:48.197Z,87.60
2023-12-11T15:15:19.921Z,86.70
2023-12-11T15:17:50.375Z,86.70
2023-12-11T15:20:23.298Z,86.90
2023-12-11T15:22:53.783Z,86.70
2023-12-11T15:25:25.490Z,87.00
2023-12-11T15:27:56.821Z,86.60
2023-12-11T15:30:27.453Z,86.60
2023-12-11T15:32:58.008Z,86.30
2023-12-11T15:35:28.428Z,87.50
2023-12-11T15:37:58.971Z,87.20
2023-12-11T15:40:30.782Z,86.90
2023-12-11T15:43:01.250Z,87.30
2023-12-11T15:45:32.296Z,87.40
2023-12-11T15:48:03.609Z,88.00
2023-12-11T15:50:34.944Z,87.30
2023-12-11T15:53:06.070Z,87.40
2023-12-11T15:55:36.500Z,88.10
2023-12-11T15:58:08.156Z,87.80
2023-12-11T16:00:39.150Z,88.60
2023-12-11T16:03:09.642Z,88.10
2023-12-11T16:05:40.330Z,88.40
2023-12-11T16:08:23.191Z,88.50
2023-12-11T16:10:53.655Z,88.80
2023-12-11T16:13:24.212Z,89.10
2023-12-11T16:15:54.743Z,89.00
2023-12-11T16:18:25.530Z,89.10
2023-12-11T16:20:56.252Z,89.30
2023-12-11T16:23:26.586Z,89.70
2023-12-11T16:26:02.877Z,89.90
2023-12-11T16:28:36.507Z,90.00
2023-12-11T16:31:07.082Z,90.10
2023-12-11T16:33:37.932Z,90.50
2023-12-11T16:36:17.873Z,89.90
2023-12-11T16:38:48.349Z,89.50
2023-12-11T16:41:29.380Z,89.30
2023-12-11T16:44:00.389Z,89.10
2023-12-11T16:46:30.846Z,88.90
2023-12-11T16:49:01.404Z,89.40
2023-12-11T16:51:31.881Z,88.90
2023-12-11T16:54:02.283Z,88.80
2023-12-11T16:56:32.854Z,88.70
2023-12-11T16:59:03.410Z,88.60
2023-12-11T17:01:33.947Z,88.40
2023-12-11T17:04:04.622Z,88.30
2023-12-11T17:06:36.139Z,88.60
2023-12-11T17:09:07.662Z,88.50
2023-12-11T17:11:39.843Z,87.90
2023-12-11T17:14:10.288Z,88.20
2023-12-11T17:16:40.687Z,89.10
2023-12-11T17:19:11.335Z,88.80
2023-12-11T17:21:44.948Z,88.40
2023-12-11T17:24:17.595Z,88.40
2023-12-11T17:26:48.050Z,88.10
2023-12-11T17:29:18.541Z,88.20
2023-12-11T17:31:49.113Z,88.30
2023-12-11T17:34:19.601Z,88.30
2023-12-11T17:36:50.397Z,88.60
2023-12-11T17:39:20.832Z,88.50
2023-12-11T17:41:51.267Z,88.80
2023-12-11T17:44:22.576Z,88.50
2023-12-11T17:46:53.040Z,88.40
2023-12-11T17:49:23.570Z,88.30
2023-12-11T17:51:54.993Z,88.40
2023-12-11T17:54:25.528Z,89.50
2023-12-11T17:56:56.634Z,88.90
2023-12-11T17:59:26.987Z,88.90
2023-12-11T18:01:57.497Z,89.20
2023-12-11T18:04:28.136Z,88.60
2023-12-11T18:06:58.749Z,89.00
2023-12-11T18:09:29.329Z,88.60
2023-12-11T18:11:59.743Z,88.50
2023-12-11T18:14:30.068Z,88.30
2023-12-11T18:17:00.643Z,88.40
2023-12-11T18:19:31.353Z,88.50
2023-12-11T18:22:03.334Z,88.60
2023-12-11T18:24:35.050Z,88.40
2023-12-11T18:27:05.717Z,88.70
2023-12-11T18:29:36.110Z,88.80
2023-12-11T18:32:06.656Z,88.90
2023-12-11T18:34:43.511Z,89.30
2023-12-11T18:37:22.499Z,89.30
2023-12-11T18:39:54.450Z,89.20
2023-12-11T18:42:26.079Z,89.10
2023-12-11T18:44:56.442Z,89.00
2023-12-11T18:47:26.907Z,89.20
2023-12-11T18:49:57.661Z,89.20
2023-12-11T18:52:28.193Z,88.90
2023-12-11T18:55:00.599Z,88.90
2023-12-11T18:57:31.649Z,88.90
2023-12-11T19:00:02.214Z,87.90
2023-12-11T19:02:32.801Z,88.00
2023-12-11T19:05:03.435Z,87.10
2023-12-11T19:07:35.622Z,87.30
2023-12-11T19:10:06.275Z,87.50
2023-12-11T19:12:36.874Z,88.30
2023-12-11T19:15:07.669Z,87.60
2023-12-11T19:17:38.141Z,87.50
2023-12-11T19:20:12.666Z,87.50
2023-12-11T19:22:43.056Z,87.20
2023-12-11T19:25:14.140Z,86.80
2023-12-11T19:27:46.273Z,87.20
2023-12-11T19:30:16.880Z,86.80
2023-12-11T19:32:47.386Z,86.50
2023-12-11T19:35:18.133Z,86.60
2023-12-11T19:37:48.815Z,87.50
2023-12-11T19:40:19.727Z,88.20
2023-12-11T19:42:51.310Z,89.90
2023-12-11T19:45:21.912Z,89.60
2023-12-11T19:47:53.115Z,89.10
2023-12-11T19:50:23.796Z,89.00
2023-12-11T19:52:55.141Z,88.30
2023-12-11T19:55:25.816Z,88.20
2023-12-11T19:57:57.374Z,88.50
2023-12-11T20:00:27.888Z,88.40
2023-12-11T20:02:58.326Z,87.10
2023-12-11T20:05:28.888Z,86.60
2023-12-11T20:07:59.614Z,86.90
2023-12-11T20:10:29.964Z,86.50
2023-12-11T20:13:01.186Z,85.20
2023-12-11T20:15:31.585Z,85.90
2023-12-11T20:18:02.847Z,85.20
2023-12-11T20:20:33.142Z,85.50
2023-12-11T20:23:03.504Z,85.90
2023-12-11T20:25:33.933Z,85.30
2023-12-11T20:28:04.353Z,85.00
2023-12-11T20:30:35.063Z,85.00
2023-12-11T20:33:05.584Z,84.90
2023-12-11T20:35:37.017Z,85.30
2023-12-11T20:38:07.618Z,85.70
2023-12-11T20:40:39.216Z,86.00
2023-12-11T20:43:10.472Z,86.30
2023-12-11T20:45:41.250Z,86.30
2023-12-11T20:48:12.147Z,86.80
2023-12-11T20:50:42.417Z,87.20
2023-12-11T20:53:12.806Z,86.60
2023-12-11T20:55:44.975Z,85.70
2023-12-11T20:58:17.475Z,85.80
2023-12-11T21:00:47.858Z,85.30
2023-12-11T21:03:20.504Z,86.80
2023-12-11T21:05:51.464Z,85.10
2023-12-11T21:08:21.807Z,84.20
2023-12-11T21:10:52.066Z,83.30
2023-12-11T21:13:22.415Z,84.40
2023-12-11T21:15:54.670Z,83.50
2023-12-11T21:18:27.514Z,82.50
2023-12-11T21:20:58.063Z,83.30
2023-12-11T21:23:28.799Z,82.40
2023-12-11T21:25:59.367Z,82.20
2023-12-11T21:28:29.992Z,81.40
2023-12-11T21:31:00.328Z,82.60
2023-12-11T21:33:33.441Z,81.80
2023-12-11T21:36:03.880Z,82.00
2023-12-11T21:38:34.215Z,79.80
2023-12-11T21:41:06.512Z,79.80
2023-12-11T21:43:36.808Z,80.00
2023-12-11T21:46:08.477Z,79.10
2023-12-11T21:48:39.508Z,79.60
2023-12-11T21:53:57.002Z,79.20
2023-12-11T21:56:38.878Z,79.20
2023-12-11T21:59:09.874Z,79.30
2023-12-11T22:01:40.946Z,79.00
2023-12-11T22:04:13.632Z,77.20
2023-12-11T22:06:50.822Z,77.00
2023-12-11T22:09:21.653Z,76.40
2023-12-11T22:12:03.714Z,76.30
2023-12-11T22:14:35.745Z,76.50
2023-12-11T22:17:06.269Z,76.20
2023-12-11T22:19:38.474Z,75.30
2023-12-11T22:22:10.395Z,74.60
2023-12-11T22:24:42.065Z,75.00
2023-12-11T22:27:12.645Z,74.90
2023-12-11T22:29:45.540Z,74.10
2023-12-11T22:32:16.413Z,73.60
2023-12-11T22:34:46.857Z,74.80
2023-12-11T22:37:18.793Z,72.50
2023-12-11T22:39:49.372Z,71.90
2023-12-11T22:42:20.605Z,71.30
2023-12-11T22:44:50.940Z,71.10
2023-12-11T22:47:21.306Z,70.80
2023-12-11T22:49:51.649Z,71.20
2023-12-11T22:52:22.685Z,70.50
2023-12-11T22:54:53.009Z,70.30
2023-12-11T22:57:23.382Z,69.80
2023-12-11T22:59:53.760Z,70.00
2023-12-11T23:02:24.152Z,69.60
2023-12-11T23:04:58.404Z,70.40
2023-12-11T23:07:29.056Z,69.40
2023-12-11T23:09:59.408Z,69.90
2023-12-11T23:12:29.692Z,69.50
2023-12-11T23:15:00.008Z,68.00
2023-12-11T23:17:30.638Z,68.00
2023-12-11T23:20:01.746Z,68.60
2023-12-11T23:22:32.286Z,68.00
2023-12-11T23:25:02.611Z,68.70
2023-12-11T23:27:33.241Z,68.60
2023-12-11T23:30:07.418Z,68.30
2023-12-11T23:32:39.538Z,66.80
2023-12-11T23:35:10.632Z,67.00
2023-12-11T23:37:40.978Z,67.40
2023-12-11T23:40:11.929Z,67.60
2023-12-11T23:42:42.953Z,67.40
2023-12-11T23:45:13.515Z,67.10
2023-12-11T23:47:44.576Z,67.40
2023-12-11T23:50:15.466Z,65.70
2023-12-11T23:52:46.172Z,67.20
2023-12-11T23:55:16.465Z,66.10
2023-12-11T23:57:46.868Z,66.40
